Time,TemperatureF,DewpointF,PressureIn,WindDirection,WindDirectionDegrees,WindSpeedMPH,WindSpeedGustMPH,Humidity,HourlyPrecipIn,Conditions,Clouds,dailyrainin,SoftwareType,DateUTC
2013-04-24 00:03:00,53.6,53.0,29.86,NW,315,0.0,-999.0,98,-99.99,,,0.00,Acu-Link.com,2013-04-24 04:03:00,
2013-04-24 00:18:00,53.1,52.5,29.86,WSW,247,0.0,-999.0,98,-99.99,,,0.00,Acu-Link.com,2013-04-24 04:18:00,
2013-04-24 00:33:00,52.3,51.8,29.86,ENE,67,0.0,-999.0,98,-99.99,,,0.00,Acu-Link.com,2013-04-24 04:33:00,
2013-04-24 00:49:00,52.0,51.5,29.86,SSW,202,0.0,-999.0,98,-99.99,,,0.00,Acu-Link.com,2013-04-24 04:49:00,
2013-04-24 01:04:00,51.6,51.1,29.87,ENE,67,0.0,-999.0,98,-99.99,,,0.00,Acu-Link.com,2013-04-24 05:04:00,
2013-04-24 01:19:00,51.1,50.6,29.86,NNE,22,0.0,-999.0,98,-99.99,,,0.00,Acu-Link.com,2013-04-24 05:19:00,
2013-04-24 01:34:00,51.3,50.8,29.86,NNE,22,0.0,-999.0,98,-99.99,,,0.00,Acu-Link.com,2013-04-24 05:34:00,
2013-04-24 01:49:00,50.7,50.2,29.85,SW,225,0.0,-999.0,98,-99.99,,,0.00,Acu-Link.com,2013-04-24 05:49:00,
2013-04-24 02:05:00,50.0,49.5,29.85,SSW,202,0.0,-999.0,98,-99.99,,,0.00,Acu-Link.com,2013-04-24 06:05:00,
2013-04-24 02:20:00,49.5,49.0,29.84,ESE,112,0.0,-999.0,98,-99.99,,,0.00,Acu-Link.com,2013-04-24 06:20:00,
2013-04-24 02:35:00,49.1,48.6,29.84,SE,135,0.0,-999.0,98,-99.99,,,0.00,Acu-Link.com,2013-04-24 06:35:00,
2013-04-24 02:51:00,48.7,48.2,29.84,NW,315,0.0,-999.0,98,-99.99,,,0.00,Acu-Link.com,2013-04-24 06:51:00,
2013-04-24 03:06:00,48.2,47.7,29.84,SSW,202,0.0,-999.0,98,-99.99,,,0.00,Acu-Link.com,2013-04-24 07:06:00,
2013-04-24 03:21:00,47.8,47.3,29.84,SSW,202,0.0,-999.0,98,-99.99,,,0.00,Acu-Link.com,2013-04-24 07:21:00,
2013-04-24 03:36:00,47.7,47.2,29.83,SSW,202,0.0,-999.0,98,-99.99,,,0.00,Acu-Link.com,2013-04-24 07:36:00,
2013-04-24 03:51:00,47.1,46.6,29.83,SSE,157,0.0,-999.0,98,-99.99,,,0.00,Acu-Link.com,2013-04-24 07:51:00,
2013-04-24 04:07:00,47.1,46.6,29.85,South,180,0.0,-999.0,98,-99.99,,,0.00,Acu-Link.com,2013-04-24 08:07:00,
2013-04-24 04:22:00,46.9,46.4,29.84,SSW,202,0.0,-999.0,98,-99.99,,,0.00,Acu-Link.com,2013-04-24 08:22:00,
2013-04-24 04:37:00,46.6,46.1,29.84,West,270,0.0,-999.0,98,-99.99,,,0.00,Acu-Link.com,2013-04-24 08:37:00,
2013-04-24 04:52:00,46.6,46.1,29.84,West,270,0.0,-999.0,98,-99.99,,,0.00,Acu-Link.com,2013-04-24 08:52:00,
2013-04-24 05:08:00,46.4,45.9,29.84,South,180,0.0,-999.0,98,-99.99,,,0.00,Acu-Link.com,2013-04-24 09:08:00,
2013-04-24 05:23:00,46.0,45.5,29.83,NE,45,0.0,-999.0,98,-99.99,,,0.00,Acu-Link.com,2013-04-24 09:23:00,
2013-04-24 05:38:00,45.9,45.4,29.84,NNW,337,0.0,-999.0,98,-99.99,,,0.00,Acu-Link.com,2013-04-24 09:38:00,
2013-04-24 05:54:00,46.0,45.5,29.83,NNW,337,0.0,-999.0,98,-99.99,,,0.00,Acu-Link.com,2013-04-24 09:54:00,
2013-04-24 06:09:00,45.3,44.8,29.85,SSW,202,0.0,-999.0,98,-99.99,,,0.00,Acu-Link.com,2013-04-24 10:09:00,
2013-04-24 06:24:00,45.1,44.6,29.85,NE,45,0.0,-999.0,98,-99.99,,,0.00,Acu-Link.com,2013-04-24 10:24:00,
2013-04-24 06:39:00,44.8,44.3,29.84,NNE,22,0.0,-999.0,98,-99.99,,,0.00,Acu-Link.com,2013-04-24 10:39:00,
2013-04-24 06:55:00,44.8,44.3,29.84,SSE,157,0.0,-999.0,98,-99.99,,,0.00,Acu-Link.com,2013-04-24 10:55:00,
2013-04-24 07:10:00,45.0,44.5,29.85,SSE,157,0.0,-999.0,98,-99.99,,,0.00,Acu-Link.com,2013-04-24 11:10:00,
2013-04-24 07:25:00,45.9,45.4,29.85,SE,135,0.0,-999.0,98,-99.99,,,0.00,Acu-Link.com,2013-04-24 11:25:00,
2013-04-24 07:40:00,46.9,46.4,29.85,West,270,0.0,-999.0,98,-99.99,,,0.00,Acu-Link.com,2013-04-24 11:40:00,
2013-04-24 07:55:00,48.0,47.5,29.85,WNW,292,0.0,-999.0,98,-99.99,,,0.00,Acu-Link.com,2013-04-24 11:55:00,
2013-04-24 08:11:00,49.1,48.6,29.86,NNE,22,1.1,-999.0,98,-99.99,,,0.00,Acu-Link.com,2013-04-24 12:11:00,
2013-04-24 08:26:00,50.2,49.7,29.86,South,180,1.1,-999.0,98,-99.99,,,0.00,Acu-Link.com,2013-04-24 12:26:00,
2013-04-24 08:41:00,51.1,50.6,29.85,SSW,202,0.0,-999.0,98,-99.99,,,0.00,Acu-Link.com,2013-04-24 12:41:00,
2013-04-24 08:57:00,52.3,51.8,29.86,SSW,202,0.0,-999.0,98,-99.99,,,0.00,Acu-Link.com,2013-04-24 12:57:00,
2013-04-24 09:12:00,53.8,53.2,29.86,WNW,292,0.0,-999.0,98,-99.99,,,0.00,Acu-Link.com,2013-04-24 13:12:00,
2013-04-24 09:27:00,54.7,54.1,29.84,West,270,1.7,-999.0,98,-99.99,,,0.00,Acu-Link.com,2013-04-24 13:27:00,
2013-04-24 09:43:00,56.1,55.5,29.84,SW,225,0.0,-999.0,98,-99.99,,,0.00,Acu-Link.com,2013-04-24 13:43:00,
2013-04-24 09:58:00,57.9,57.3,29.84,SSW,202,3.2,-999.0,98,-99.99,,,0.00,Acu-Link.com,2013-04-24 13:58:00,
2013-04-24 10:13:00,61.3,60.7,29.83,NW,315,1.7,-999.0,98,-99.99,,,0.00,Acu-Link.com,2013-04-24 14:13:00,
2013-04-24 10:28:00,63.0,62.4,29.82,SSE,157,2.2,-999.0,98,-99.99,,,0.00,Acu-Link.com,2013-04-24 14:28:00,
2013-04-24 10:44:00,66.7,66.1,29.82,SW,225,2.7,-999.0,98,-99.99,,,0.00,Acu-Link.com,2013-04-24 14:44:00,
2013-04-24 10:59:00,70.2,69.6,29.81,West,270,2.7,-999.0,98,-99.99,,,0.00,Acu-Link.com,2013-04-24 14:59:00,
2013-04-24 11:14:00,67.6,67.0,29.81,ESE,112,6.3,-999.0,98,-99.99,,,0.00,Acu-Link.com,2013-04-24 15:14:00,
2013-04-24 11:29:00,69.1,68.5,29.80,NNE,22,1.7,-999.0,98,-99.99,,,0.00,Acu-Link.com,2013-04-24 15:29:00,
2013-04-24 11:45:00,65.8,65.2,29.80,SSW,202,2.7,-999.0,98,-99.99,,,0.00,Acu-Link.com,2013-04-24 15:45:00,
2013-04-24 12:00:00,67.5,66.9,29.81,SW,225,2.2,-999.0,98,-99.99,,,0.00,Acu-Link.com,2013-04-24 16:00:00,
2013-04-24 12:15:00,67.5,66.9,29.81,SSE,157,2.2,-999.0,98,-99.99,,,0.00,Acu-Link.com,2013-04-24 16:15:00,
2013-04-24 12:31:00,67.5,66.9,29.80,NNE,22,6.8,-999.0,98,-99.99,,,0.00,Acu-Link.com,2013-04-24 16:31:00,
2013-04-24 12:46:00,67.5,66.9,29.80,SW,225,3.7,-999.0,98,-99.99,,,0.00,Acu-Link.com,2013-04-24 16:46:00,
2013-04-24 13:01:00,70.0,69.4,29.78,East,90,5.3,-999.0,98,-99.99,,,0.00,Acu-Link.com,2013-04-24 17:01:00,
2013-04-24 13:16:00,70.9,70.3,29.78,SSE,157,4.7,-999.0,98,-99.99,,,0.00,Acu-Link.com,2013-04-24 17:16:00,
2013-04-24 13:32:00,71.2,70.6,29.77,WNW,292,5.3,-999.0,98,-99.99,,,0.00,Acu-Link.com,2013-04-24 17:32:00,
2013-04-24 13:47:00,70.7,70.1,29.77,South,180,4.2,-999.0,98,-99.99,,,0.00,Acu-Link.com,2013-04-24 17:47:00,
2013-04-24 14:02:00,72.3,71.7,29.77,North,0,4.7,-999.0,98,-99.99,,,0.00,Acu-Link.com,2013-04-24 18:02:00,
2013-04-24 14:18:00,70.9,70.3,29.77,SW,225,5.8,-999.0,98,-99.99,,,0.00,Acu-Link.com,2013-04-24 18:18:00,
2013-04-24 14:33:00,69.8,69.2,29.76,South,180,4.2,-999.0,98,-99.99,,,0.00,Acu-Link.com,2013-04-24 18:33:00,
2013-04-24 14:48:00,71.2,70.6,29.74,SSW,202,6.3,-999.0,98,-99.99,,,0.00,Acu-Link.com,2013-04-24 18:48:00,
2013-04-24 15:03:00,71.2,70.6,29.75,West,270,7.3,-999.0,98,-99.99,,,0.00,Acu-Link.com,2013-04-24 19:03:00,
2013-04-24 15:19:00,70.7,70.1,29.76,ESE,112,2.7,-999.0,98,-99.99,,,0.00,Acu-Link.com,2013-04-24 19:19:00,
2013-04-24 15:34:00,70.5,69.9,29.74,SSE,157,5.3,-999.0,98,-99.99,,,0.00,Acu-Link.com,2013-04-24 19:34:00,
2013-04-24 15:49:00,71.2,70.6,29.72,SE,135,2.7,-999.0,98,-99.99,,,0.00,Acu-Link.com,2013-04-24 19:49:00,
2013-04-24 16:04:00,70.7,70.1,29.72,WSW,247,2.7,-999.0,98,-99.99,,,0.00,Acu-Link.com,2013-04-24 20:04:00,
2013-04-24 16:19:00,71.8,71.2,29.72,NNW,337,3.7,-999.0,98,-99.99,,,0.00,Acu-Link.com,2013-04-24 20:19:00,
2013-04-24 16:35:00,73.0,72.4,29.71,SSE,157,2.2,-999.0,98,-99.99,,,0.00,Acu-Link.com,2013-04-24 20:35:00,
2013-04-24 16:50:00,72.0,71.4,29.71,NE,45,2.7,-999.0,98,-99.99,,,0.00,Acu-Link.com,2013-04-24 20:50:00,
2013-04-24 17:05:00,72.0,71.4,29.71,NNE,22,2.7,-999.0,98,-99.99,,,0.00,Acu-Link.com,2013-04-24 21:05:00,
2013-04-24 17:20:00,72.1,71.5,29.71,NW,315,1.1,-999.0,98,-99.99,,,0.00,Acu-Link.com,2013-04-24 21:20:00,
2013-04-24 17:35:00,71.8,71.2,29.70,SSE,157,4.2,-999.0,98,-99.99,,,0.00,Acu-Link.com,2013-04-24 21:35:00,
2013-04-24 17:50:00,72.3,71.7,29.71,ENE,67,4.2,-999.0,98,-99.99,,,0.00,Acu-Link.com,2013-04-24 21:50:00,
2013-04-24 18:06:00,70.7,70.1,29.72,East,90,4.2,-999.0,98,-99.99,,,0.00,Acu-Link.com,2013-04-24 22:06:00,
2013-04-24 18:21:00,70.5,69.9,29.71,SSW,202,1.7,-999.0,98,-99.99,,,0.00,Acu-Link.com,2013-04-24 22:21:00,
2013-04-24 18:37:00,70.0,69.4,29.72,SSW,202,3.7,-999.0,98,-99.99,,,0.00,Acu-Link.com,2013-04-24 22:37:00,
2013-04-24 18:52:00,70.0,69.4,29.70,NE,45,2.2,-999.0,98,-99.99,,,0.00,Acu-Link.com,2013-04-24 22:52:00,
2013-04-24 19:07:00,68.7,68.1,29.71,SW,225,6.8,-999.0,98,-99.99,,,0.00,Acu-Link.com,2013-04-24 23:07:00,
2013-04-24 19:22:00,68.7,68.1,29.72,SSE,157,4.7,-999.0,98,-99.99,,,0.00,Acu-Link.com,2013-04-24 23:22:00,
2013-04-24 19:37:00,68.7,68.1,29.72,South,180,3.2,-999.0,98,-99.99,,,0.00,Acu-Link.com,2013-04-24 23:37:00,
2013-04-24 19:53:00,68.2,67.6,29.73,SSW,202,3.7,-999.0,98,-99.99,,,0.00,Acu-Link.com,2013-04-24 23:53:00,
2013-04-24 20:08:00,67.6,67.0,29.73,WSW,247,3.2,-999.0,98,-99.99,,,0.00,Acu-Link.com,2013-04-25 00:08:00,
2013-04-24 20:23:00,67.3,66.7,29.73,West,270,0.0,-999.0,98,-99.99,,,0.00,Acu-Link.com,2013-04-25 00:23:00,
2013-04-24 20:39:00,66.7,66.1,29.74,SSE,157,0.0,-999.0,98,-99.99,,,0.00,Acu-Link.com,2013-04-25 00:39:00,
2013-04-24 20:54:00,66.2,65.6,29.73,South,180,0.0,-999.0,98,-99.99,,,0.00,Acu-Link.com,2013-04-25 00:54:00,
2013-04-24 21:09:00,65.8,65.2,29.73,SSW,202,0.0,-999.0,98,-99.99,,,0.00,Acu-Link.com,2013-04-25 01:09:00,
2013-04-24 21:24:00,65.7,65.1,29.74,South,180,0.0,-999.0,98,-99.99,,,0.00,Acu-Link.com,2013-04-25 01:24:00,
2013-04-24 21:40:00,65.3,64.7,29.74,ESE,112,1.1,-999.0,98,-99.99,,,0.00,Acu-Link.com,2013-04-25 01:40:00,
2013-04-24 21:55:00,64.4,63.8,29.74,West,270,0.0,-999.0,98,-99.99,,,0.00,Acu-Link.com,2013-04-25 01:55:00,
2013-04-24 22:10:00,64.0,63.4,29.74,ESE,112,0.0,-999.0,98,-99.99,,,0.00,Acu-Link.com,2013-04-25 02:10:00,
2013-04-24 22:25:00,63.7,63.1,29.75,SSW,202,0.0,-999.0,98,-99.99,,,0.00,Acu-Link.com,2013-04-25 02:25:00,
2013-04-24 22:41:00,63.5,62.9,29.75,ESE,112,0.0,-999.0,98,-99.99,,,0.00,Acu-Link.com,2013-04-25 02:41:00,
2013-04-24 22:56:00,63.3,62.7,29.76,South,180,0.0,-999.0,98,-99.99,,,0.00,Acu-Link.com,2013-04-25 02:56:00,
2013-04-24 23:11:00,60.8,60.2,29.78,West,270,3.7,-999.0,98,-99.99,,,0.03,Acu-Link.com,2013-04-25 03:11:00,
2013-04-24 23:27:00,58.6,58.0,29.79,WNW,292,2.7,-999.0,98,-99.99,,,0.05,Acu-Link.com,2013-04-25 03:27:00,
2013-04-24 23:42:00,56.8,56.2,29.79,South,180,3.7,-999.0,98,-99.99,,,0.05,Acu-Link.com,2013-04-25 03:42:00,
2013-04-24 23:57:00,55.0,54.4,29.79,SSW,202,2.2,-999.0,98,-99.99,,,0.05,Acu-Link.com,2013-04-25 03:57:00,